sensor_id;sensor_type;location;lat;lon;timestamp;temperature;humidity
56512;DHT22;42408;53.238;5.686;2024-03-02T00:00:50;8.70;99.90
56512;DHT22;42408;53.238;5.686;2024-03-02T00:03:17;8.70;99.90
56512;DHT22;42408;53.238;5.686;2024-03-02T00:05:43;8.70;99.90
56512;DHT22;42408;53.238;5.686;2024-03-02T00:08:09;8.70;99.90
56512;DHT22;42408;53.238;5.686;2024-03-02T00:10:39;8.70;99.90
56512;DHT22;42408;53.238;5.686;2024-03-02T00:13:12;8.60;99.90
56512;DHT22;42408;53.238;5.686;2024-03-02T00:18:39;8.70;99.90
56512;DHT22;42408;53.238;5.686;2024-03-02T00:21:06;8.60;99.90
56512;DHT22;42408;53.238;5.686;2024-03-02T00:23:35;8.60;99.90
56512;DHT22;42408;53.238;5.686;2024-03-02T00:26:00;8.60;99.90
56512;DHT22;42408;53.238;5.686;2024-03-02T00:28:31;8.60;99.90
56512;DHT22;42408;53.238;5.686;2024-03-02T00:33:35;8.60;99.90
56512;DHT22;42408;53.238;5.686;2024-03-02T00:36:05;8.60;99.90
56512;DHT22;42408;53.238;5.686;2024-03-02T00:38:33;8.50;99.90
56512;DHT22;42408;53.238;5.686;2024-03-02T00:41:09;8.50;99.90
56512;DHT22;42408;53.238;5.686;2024-03-02T00:43:47;8.50;99.90
56512;DHT22;42408;53.238;5.686;2024-03-02T00:46:17;8.50;99.90
56512;DHT22;42408;53.238;5.686;2024-03-02T00:51:20;8.40;99.90
56512;DHT22;42408;53.238;5.686;2024-03-02T00:53:46;8.30;99.90
56512;DHT22;42408;53.238;5.686;2024-03-02T00:56:12;8.30;99.90
56512;DHT22;42408;53.238;5.686;2024-03-02T00:58:40;8.30;99.90
56512;DHT22;42408;53.238;5.686;2024-03-02T01:01:06;8.30;99.90
56512;DHT22;42408;53.238;5.686;2024-03-02T01:03:34;8.30;99.90
56512;DHT22;42408;53.238;5.686;2024-03-02T01:05:59;8.30;99.90
56512;DHT22;42408;53.238;5.686;2024-03-02T01:08:25;8.30;99.90
56512;DHT22;42408;53.238;5.686;2024-03-02T01:10:51;8.20;99.90
56512;DHT22;42408;53.238;5.686;2024-03-02T01:13:17;8.20;99.90
56512;DHT22;42408;53.238;5.686;2024-03-02T01:15:43;8.30;99.90
56512;DHT22;42408;53.238;5.686;2024-03-02T01:18:09;8.20;99.90
56512;DHT22;42408;53.238;5.686;2024-03-02T01:20:35;8.20;99.90
56512;DHT22;42408;53.238;5.686;2024-03-02T01:23:00;8.20;99.90
56512;DHT22;42408;53.238;5.686;2024-03-02T01:25:26;8.20;99.90
56512;DHT22;42408;53.238;5.686;2024-03-02T01:27:52;8.30;99.90
56512;DHT22;42408;53.238;5.686;2024-03-02T01:30:17;8.30;99.90
56512;DHT22;42408;53.238;5.686;2024-03-02T01:32:43;8.30;99.90
56512;DHT22;42408;53.238;5.686;2024-03-02T01:35:08;8.30;99.90
56512;DHT22;42408;53.238;5.686;2024-03-02T01:37:34;8.30;99.90
56512;DHT22;42408;53.238;5.686;2024-03-02T01:40:00;8.30;99.90
56512;DHT22;42408;53.238;5.686;2024-03-02T01:42:26;8.30;99.90
56512;DHT22;42408;53.238;5.686;2024-03-02T01:44:51;8.40;99.90
56512;DHT22;42408;53.238;5.686;2024-03-02T01:47:17;8.40;99.90
56512;DHT22;42408;53.238;5.686;2024-03-02T01:49:43;8.40;99.90
56512;DHT22;42408;53.238;5.686;2024-03-02T01:52:09;8.50;99.90
56512;DHT22;42408;53.238;5.686;2024-03-02T01:54:34;8.60;99.90
56512;DHT22;42408;53.238;5.686;2024-03-02T01:57:00;8.60;99.90
56512;DHT22;42408;53.238;5.686;2024-03-02T01:59:26;8.70;99.90
56512;DHT22;42408;53.238;5.686;2024-03-02T02:01:52;8.80;99.90
56512;DHT22;42408;53.238;5.686;2024-03-02T02:04:18;8.80;99.90
56512;DHT22;42408;53.238;5.686;2024-03-02T02:06:46;8.80;99.90
56512;DHT22;42408;53.238;5.686;2024-03-02T02:09:12;8.90;99.90
56512;DHT22;42408;53.238;5.686;2024-03-02T02:11:38;8.90;99.90
56512;DHT22;42408;53.238;5.686;2024-03-02T02:14:03;9.00;99.90
56512;DHT22;42408;53.238;5.686;2024-03-02T02:16:29;9.10;99.90
56512;DHT22;42408;53.238;5.686;2024-03-02T02:18:55;9.00;99.90
56512;DHT22;42408;53.238;5.686;2024-03-02T02:21:23;9.00;99.90
56512;DHT22;42408;53.238;5.686;2024-03-02T02:23:48;9.00;99.90
56512;DHT22;42408;53.238;5.686;2024-03-02T02:26:15;9.00;99.90
56512;DHT22;42408;53.238;5.686;2024-03-02T02:28:41;9.00;99.90
56512;DHT22;42408;53.238;5.686;2024-03-02T02:31:12;9.00;99.90
56512;DHT22;42408;53.238;5.686;2024-03-02T02:33:42;9.00;99.90
56512;DHT22;42408;53.238;5.686;2024-03-02T02:36:07;9.00;99.90
56512;DHT22;42408;53.238;5.686;2024-03-02T02:38:35;9.00;99.90
56512;DHT22;42408;53.238;5.686;2024-03-02T02:41:02;9.00;99.90
56512;DHT22;42408;53.238;5.686;2024-03-02T02:43:28;8.90;99.90
56512;DHT22;42408;53.238;5.686;2024-03-02T02:45:53;8.90;99.90
56512;DHT22;42408;53.238;5.686;2024-03-02T02:48:19;8.90;99.90
56512;DHT22;42408;53.238;5.686;2024-03-02T02:50:44;8.90;99.90
56512;DHT22;42408;53.238;5.686;2024-03-02T02:53:10;9.00;99.90
56512;DHT22;42408;53.238;5.686;2024-03-02T02:55:36;8.90;99.90
56512;DHT22;42408;53.238;5.686;2024-03-02T02:58:06;8.90;99.90
56512;DHT22;42408;53.238;5.686;2024-03-02T03:00:32;8.90;99.90
56512;DHT22;42408;53.238;5.686;2024-03-02T03:02:58;8.80;99.90
56512;DHT22;42408;53.238;5.686;2024-03-02T03:05:23;8.80;99.90
56512;DHT22;42408;53.238;5.686;2024-03-02T03:07:49;8.80;99.90
56512;DHT22;42408;53.238;5.686;2024-03-02T03:10:16;8.80;99.90
56512;DHT22;42408;53.238;5.686;2024-03-02T03:12:42;8.80;99.90
56512;DHT22;42408;53.238;5.686;2024-03-02T03:15:09;8.70;99.90
56512;DHT22;42408;53.238;5.686;2024-03-02T03:17:35;8.80;99.90
56512;DHT22;42408;53.238;5.686;2024-03-02T03:20:03;8.80;99.90
56512;DHT22;42408;53.238;5.686;2024-03-02T03:22:30;8.70;99.90
56512;DHT22;42408;53.238;5.686;2024-03-02T03:24:56;8.70;99.90
56512;DHT22;42408;53.238;5.686;2024-03-02T03:27:22;8.60;99.90
56512;DHT22;42408;53.238;5.686;2024-03-02T03:29:47;8.60;99.90
56512;DHT22;42408;53.238;5.686;2024-03-02T03:32:13;8.50;99.90
56512;DHT22;42408;53.238;5.686;2024-03-02T03:34:39;8.60;99.90
56512;DHT22;42408;53.238;5.686;2024-03-02T03:37:05;8.50;99.90
56512;DHT22;42408;53.238;5.686;2024-03-02T03:39:31;8.50;99.90
56512;DHT22;42408;53.238;5.686;2024-03-02T03:41:57;8.40;99.90
56512;DHT22;42408;53.238;5.686;2024-03-02T03:44:22;8.40;99.90
56512;DHT22;42408;53.238;5.686;2024-03-02T03:46:48;8.40;99.90
56512;DHT22;42408;53.238;5.686;2024-03-02T03:49:14;8.30;99.90
56512;DHT22;42408;53.238;5.686;2024-03-02T03:51:39;8.30;99.90
56512;DHT22;42408;53.238;5.686;2024-03-02T03:54:05;8.30;99.90
56512;DHT22;42408;53.238;5.686;2024-03-02T03:56:31;8.30;99.90
56512;DHT22;42408;53.238;5.686;2024-03-02T03:58:56;8.30;99.90
56512;DHT22;42408;53.238;5.686;2024-03-02T04:01:22;8.20;99.90
56512;DHT22;42408;53.238;5.686;2024-03-02T04:03:48;8.30;99.90
56512;DHT22;42408;53.238;5.686;2024-03-02T04:06:14;8.20;99.90
56512;DHT22;42408;53.238;5.686;2024-03-02T04:08:41;8.20;99.90
56512;DHT22;42408;53.238;5.686;2024-03-02T04:11:07;8.10;99.90
56512;DHT22;42408;53.238;5.686;2024-03-02T04:13:33;8.00;99.90
56512;DHT22;42408;53.238;5.686;2024-03-02T04:15:59;8.00;99.90
56512;DHT22;42408;53.238;5.686;2024-03-02T04:18:24;8.00;99.90
56512;DHT22;42408;53.238;5.686;2024-03-02T04:20:50;8.00;99.90
56512;DHT22;42408;53.238;5.686;2024-03-02T04:23:15;8.00;99.90
56512;DHT22;42408;53.238;5.686;2024-03-02T04:25:41;8.00;99.90
56512;DHT22;42408;53.238;5.686;2024-03-02T04:28:07;7.90;99.90
56512;DHT22;42408;53.238;5.686;2024-03-02T04:30:32;7.90;99.90
56512;DHT22;42408;53.238;5.686;2024-03-02T04:32:58;7.80;99.90
56512;DHT22;42408;53.238;5.686;2024-03-02T04:35:24;7.80;99.90
56512;DHT22;42408;53.238;5.686;2024-03-02T04:37:50;7.80;99.90
56512;DHT22;42408;53.238;5.686;2024-03-02T04:40:16;7.70;99.90
56512;DHT22;42408;53.238;5.686;2024-03-02T04:42:42;7.70;99.90
56512;DHT22;42408;53.238;5.686;2024-03-02T04:45:08;7.70;99.90
56512;DHT22;42408;53.238;5.686;2024-03-02T04:47:34;7.60;99.90
56512;DHT22;42408;53.238;5.686;2024-03-02T04:50:00;7.60;99.90
56512;DHT22;42408;53.238;5.686;2024-03-02T04:52:25;7.60;99.90
56512;DHT22;42408;53.238;5.686;2024-03-02T04:54:51;7.60;99.90
56512;DHT22;42408;53.238;5.686;2024-03-02T04:57:43;7.60;99.90
56512;DHT22;42408;53.238;5.686;2024-03-02T05:00:10;7.60;99.90
56512;DHT22;42408;53.238;5.686;2024-03-02T05:02:35;7.60;99.90
56512;DHT22;42408;53.238;5.686;2024-03-02T05:05:01;7.60;99.90
56512;DHT22;42408;53.238;5.686;2024-03-02T05:07:28;7.60;99.90
56512;DHT22;42408;53.238;5.686;2024-03-02T05:09:53;7.50;99.90
56512;DHT22;42408;53.238;5.686;2024-03-02T05:12:19;7.50;99.90
56512;DHT22;42408;53.238;5.686;2024-03-02T05:15:04;7.40;99.90
56512;DHT22;42408;53.238;5.686;2024-03-02T05:17:30;7.40;99.90
56512;DHT22;42408;53.238;5.686;2024-03-02T05:19:55;7.40;99.90
56512;DHT22;42408;53.238;5.686;2024-03-02T05:22:21;7.30;99.90
56512;DHT22;42408;53.238;5.686;2024-03-02T05:24:46;7.20;99.90
56512;DHT22;42408;53.238;5.686;2024-03-02T05:27:12;7.20;99.90
56512;DHT22;42408;53.238;5.686;2024-03-02T05:29:38;7.10;99.90
56512;DHT22;42408;53.238;5.686;2024-03-02T05:32:03;7.00;99.90
56512;DHT22;42408;53.238;5.686;2024-03-02T05:34:29;7.00;99.90
56512;DHT22;42408;53.238;5.686;2024-03-02T05:36:56;7.00;99.90
56512;DHT22;42408;53.238;5.686;2024-03-02T05:39:23;6.90;99.90
56512;DHT22;42408;53.238;5.686;2024-03-02T05:41:48;6.90;99.90
56512;DHT22;42408;53.238;5.686;2024-03-02T05:44:14;6.80;99.90
56512;DHT22;42408;53.238;5.686;2024-03-02T05:46:41;6.80;99.90
56512;DHT22;42408;53.238;5.686;2024-03-02T05:49:07;6.80;99.90
56512;DHT22;42408;53.238;5.686;2024-03-02T05:51:33;6.70;99.90
56512;DHT22;42408;53.238;5.686;2024-03-02T05:53:59;6.60;99.90
56512;DHT22;42408;53.238;5.686;2024-03-02T05:56:24;6.60;99.90
56512;DHT22;42408;53.238;5.686;2024-03-02T05:58:50;6.50;99.90
56512;DHT22;42408;53.238;5.686;2024-03-02T06:01:48;6.50;99.90
56512;DHT22;42408;53.238;5.686;2024-03-02T06:04:17;6.40;99.90
56512;DHT22;42408;53.238;5.686;2024-03-02T06:06:43;6.40;99.90
56512;DHT22;42408;53.238;5.686;2024-03-02T06:09:09;6.30;99.90
56512;DHT22;42408;53.238;5.686;2024-03-02T06:11:39;6.30;99.90
56512;DHT22;42408;53.238;5.686;2024-03-02T06:14:06;6.20;99.90
56512;DHT22;42408;53.238;5.686;2024-03-02T06:16:32;6.20;99.90
56512;DHT22;42408;53.238;5.686;2024-03-02T06:18:58;6.20;99.90
56512;DHT22;42408;53.238;5.686;2024-03-02T06:21:24;6.10;99.90
56512;DHT22;42408;53.238;5.686;2024-03-02T06:23:50;6.20;99.90
56512;DHT22;42408;53.238;5.686;2024-03-02T06:26:16;6.10;99.90
56512;DHT22;42408;53.238;5.686;2024-03-02T06:28:42;6.10;99.90
56512;DHT22;42408;53.238;5.686;2024-03-02T06:31:08;6.10;99.90
56512;DHT22;42408;53.238;5.686;2024-03-02T06:33:34;6.10;99.90
56512;DHT22;42408;53.238;5.686;2024-03-02T06:36:00;6.10;99.90
56512;DHT22;42408;53.238;5.686;2024-03-02T06:38:26;6.10;99.90
56512;DHT22;42408;53.238;5.686;2024-03-02T06:40:52;6.10;99.90
56512;DHT22;42408;53.238;5.686;2024-03-02T06:43:17;6.10;99.90
56512;DHT22;42408;53.238;5.686;2024-03-02T06:45:43;6.00;99.90
56512;DHT22;42408;53.238;5.686;2024-03-02T06:48:08;6.00;99.90
56512;DHT22;42408;53.238;5.686;2024-03-02T06:50:34;6.00;99.90
56512;DHT22;42408;53.238;5.686;2024-03-02T06:53:00;6.00;99.90
56512;DHT22;42408;53.238;5.686;2024-03-02T06:55:25;6.00;99.90
56512;DHT22;42408;53.238;5.686;2024-03-02T06:57:51;6.00;99.90
56512;DHT22;42408;53.238;5.686;2024-03-02T07:00:18;6.10;99.90
56512;DHT22;42408;53.238;5.686;2024-03-02T07:02:45;6.10;99.90
56512;DHT22;42408;53.238;5.686;2024-03-02T07:05:12;6.10;99.90
56512;DHT22;42408;53.238;5.686;2024-03-02T07:07:37;6.20;99.90
56512;DHT22;42408;53.238;5.686;2024-03-02T07:10:04;6.20;99.90
56512;DHT22;42408;53.238;5.686;2024-03-02T07:12:30;6.30;99.90
56512;DHT22;42408;53.238;5.686;2024-03-02T07:14:57;6.30;99.90
56512;DHT22;42408;53.238;5.686;2024-03-02T07:17:29;6.40;99.90
56512;DHT22;42408;53.238;5.686;2024-03-02T07:19:54;6.50;99.90
56512;DHT22;42408;53.238;5.686;2024-03-02T07:22:20;6.70;99.90
56512;DHT22;42408;53.238;5.686;2024-03-02T07:24:46;6.90;99.90
56512;DHT22;42408;53.238;5.686;2024-03-02T07:27:12;7.10;99.90
56512;DHT22;42408;53.238;5.686;2024-03-02T07:29:38;7.20;99.90
56512;DHT22;42408;53.238;5.686;2024-03-02T07:32:05;7.30;99.90
56512;DHT22;42408;53.238;5.686;2024-03-02T07:34:31;7.50;99.90
56512;DHT22;42408;53.238;5.686;2024-03-02T07:36:57;7.60;99.90
56512;DHT22;42408;53.238;5.686;2024-03-02T07:39:23;7.80;99.90
56512;DHT22;42408;53.238;5.686;2024-03-02T07:41:49;8.00;99.90
56512;DHT22;42408;53.238;5.686;2024-03-02T07:44:15;8.20;99.90
56512;DHT22;42408;53.238;5.686;2024-03-02T07:46:44;8.40;99.90
56512;DHT22;42408;53.238;5.686;2024-03-02T07:49:10;8.30;99.90
56512;DHT22;42408;53.238;5.686;2024-03-02T07:51:36;8.30;99.90
56512;DHT22;42408;53.238;5.686;2024-03-02T07:54:02;8.30;99.90
56512;DHT22;42408;53.238;5.686;2024-03-02T07:56:27;8.30;99.90
56512;DHT22;42408;53.238;5.686;2024-03-02T07:58:53;8.30;99.90
56512;DHT22;42408;53.238;5.686;2024-03-02T08:01:19;8.30;99.90
56512;DHT22;42408;53.238;5.686;2024-03-02T08:03:45;8.40;99.90
56512;DHT22;42408;53.238;5.686;2024-03-02T08:06:16;8.60;99.90
56512;DHT22;42408;53.238;5.686;2024-03-02T08:08:41;8.80;99.90
56512;DHT22;42408;53.238;5.686;2024-03-02T08:11:07;9.10;99.90
56512;DHT22;42408;53.238;5.686;2024-03-02T08:13:33;9.40;99.90
56512;DHT22;42408;53.238;5.686;2024-03-02T08:15:58;9.60;99.90
56512;DHT22;42408;53.238;5.686;2024-03-02T08:18:24;9.70;99.90
56512;DHT22;42408;53.238;5.686;2024-03-02T08:20:50;9.90;99.90
56512;DHT22;42408;53.238;5.686;2024-03-02T08:23:17;10.10;99.90
56512;DHT22;42408;53.238;5.686;2024-03-02T08:25:43;10.30;99.90
56512;DHT22;42408;53.238;5.686;2024-03-02T08:28:08;10.30;99.90
56512;DHT22;42408;53.238;5.686;2024-03-02T08:30:34;10.50;99.90
56512;DHT22;42408;53.238;5.686;2024-03-02T08:33:00;10.60;99.90
56512;DHT22;42408;53.238;5.686;2024-03-02T08:35:25;10.90;99.90
56512;DHT22;42408;53.238;5.686;2024-03-02T08:37:51;11.00;99.90
56512;DHT22;42408;53.238;5.686;2024-03-02T08:40:17;11.20;99.90
56512;DHT22;42408;53.238;5.686;2024-03-02T08:42:42;11.20;99.90
56512;DHT22;42408;53.238;5.686;2024-03-02T08:45:08;11.30;99.90
56512;DHT22;42408;53.238;5.686;2024-03-02T08:47:34;11.40;99.90
56512;DHT22;42408;53.238;5.686;2024-03-02T08:50:00;11.40;99.90
56512;DHT22;42408;53.238;5.686;2024-03-02T08:52:26;11.50;99.90
56512;DHT22;42408;53.238;5.686;2024-03-02T08:54:52;11.60;99.90
56512;DHT22;42408;53.238;5.686;2024-03-02T08:57:18;11.70;99.90
56512;DHT22;42408;53.238;5.686;2024-03-02T08:59:44;11.60;99.90
56512;DHT22;42408;53.238;5.686;2024-03-02T09:02:10;11.60;99.90
56512;DHT22;42408;53.238;5.686;2024-03-02T09:04:36;11.70;99.90
56512;DHT22;42408;53.238;5.686;2024-03-02T09:07:01;11.60;99.90
56512;DHT22;42408;53.238;5.686;2024-03-02T09:09:27;11.60;99.90
56512;DHT22;42408;53.238;5.686;2024-03-02T09:11:53;11.60;99.90
56512;DHT22;42408;53.238;5.686;2024-03-02T09:14:20;11.50;99.90
56512;DHT22;42408;53.238;5.686;2024-03-02T09:16:46;11.30;99.90
56512;DHT22;42408;53.238;5.686;2024-03-02T09:19:12;11.20;99.90
56512;DHT22;42408;53.238;5.686;2024-03-02T09:21:38;10.90;99.90
56512;DHT22;42408;53.238;5.686;2024-03-02T09:24:03;10.80;99.90
56512;DHT22;42408;53.238;5.686;2024-03-02T09:26:29;10.80;99.90
56512;DHT22;42408;53.238;5.686;2024-03-02T09:28:55;10.80;99.90
56512;DHT22;42408;53.238;5.686;2024-03-02T09:31:21;10.80;99.90
56512;DHT22;42408;53.238;5.686;2024-03-02T09:33:46;10.90;99.90
56512;DHT22;42408;53.238;5.686;2024-03-02T09:36:22;10.90;99.90
56512;DHT22;42408;53.238;5.686;2024-03-02T09:38:48;10.90;99.90
56512;DHT22;42408;53.238;5.686;2024-03-02T09:41:14;11.00;99.90
56512;DHT22;42408;53.238;5.686;2024-03-02T09:43:40;11.10;99.90
56512;DHT22;42408;53.238;5.686;2024-03-02T09:46:09;11.40;99.90
56512;DHT22;42408;53.238;5.686;2024-03-02T09:48:35;11.30;99.90
56512;DHT22;42408;53.238;5.686;2024-03-02T09:51:01;11.50;99.90
56512;DHT22;42408;53.238;5.686;2024-03-02T09:53:32;11.50;99.90
56512;DHT22;42408;53.238;5.686;2024-03-02T09:56:01;11.60;99.90
56512;DHT22;42408;53.238;5.686;2024-03-02T09:58:27;11.50;99.90
56512;DHT22;42408;53.238;5.686;2024-03-02T10:00:53;11.60;99.90
56512;DHT22;42408;53.238;5.686;2024-03-02T10:03:19;11.70;99.90
56512;DHT22;42408;53.238;5.686;2024-03-02T10:05:46;11.70;99.90
56512;DHT22;42408;53.238;5.686;2024-03-02T10:08:12;11.80;99.90
56512;DHT22;42408;53.238;5.686;2024-03-02T10:10:39;11.80;99.90
56512;DHT22;42408;53.238;5.686;2024-03-02T10:13:12;11.80;99.90
56512;DHT22;42408;53.238;5.686;2024-03-02T10:15:39;11.80;99.90
56512;DHT22;42408;53.238;5.686;2024-03-02T10:18:10;11.90;99.90
56512;DHT22;42408;53.238;5.686;2024-03-02T10:20:37;11.90;99.90
56512;DHT22;42408;53.238;5.686;2024-03-02T10:23:16;12.00;99.90
56512;DHT22;42408;53.238;5.686;2024-03-02T10:25:43;11.90;99.90
56512;DHT22;42408;53.238;5.686;2024-03-02T10:28:09;11.90;99.90
56512;DHT22;42408;53.238;5.686;2024-03-02T10:30:35;11.90;99.90
56512;DHT22;42408;53.238;5.686;2024-03-02T10:33:05;11.90;99.90
56512;DHT22;42408;53.238;5.686;2024-03-02T10:35:31;11.90;99.90
56512;DHT22;42408;53.238;5.686;2024-03-02T10:37:59;11.90;99.90
56512;DHT22;42408;53.238;5.686;2024-03-02T10:40:26;12.00;99.90
56512;DHT22;42408;53.238;5.686;2024-03-02T10:42:52;12.00;99.90
56512;DHT22;42408;53.238;5.686;2024-03-02T10:45:20;12.00;99.90
56512;DHT22;42408;53.238;5.686;2024-03-02T10:47:48;12.00;99.90
56512;DHT22;42408;53.238;5.686;2024-03-02T10:50:13;12.00;99.90
56512;DHT22;42408;53.238;5.686;2024-03-02T10:52:39;12.00;99.90
56512;DHT22;42408;53.238;5.686;2024-03-02T10:55:06;12.20;99.90
56512;DHT22;42408;53.238;5.686;2024-03-02T10:57:53;12.20;99.90
56512;DHT22;42408;53.238;5.686;2024-03-02T11:00:24;12.30;99.90
56512;DHT22;42408;53.238;5.686;2024-03-02T11:02:56;12.30;99.90
56512;DHT22;42408;53.238;5.686;2024-03-02T11:05:27;12.30;99.90
56512;DHT22;42408;53.238;5.686;2024-03-02T11:08:02;12.30;99.90
56512;DHT22;42408;53.238;5.686;2024-03-02T11:10:34;12.40;99.90
56512;DHT22;42408;53.238;5.686;2024-03-02T11:13:02;12.40;99.90
56512;DHT22;42408;53.238;5.686;2024-03-02T11:15:30;12.50;99.90
56512;DHT22;42408;53.238;5.686;2024-03-02T11:17:57;12.60;99.90
56512;DHT22;42408;53.238;5.686;2024-03-02T11:20:23;12.70;99.90
56512;DHT22;42408;53.238;5.686;2024-03-02T11:22:50;12.70;99.90
56512;DHT22;42408;53.238;5.686;2024-03-02T11:25:26;12.80;99.90
56512;DHT22;42408;53.238;5.686;2024-03-02T11:35:25;12.90;99.90
56512;DHT22;42408;53.238;5.686;2024-03-02T11:37:52;12.90;99.90
56512;DHT22;42408;53.238;5.686;2024-03-02T11:40:22;12.90;99.90
56512;DHT22;42408;53.238;5.686;2024-03-02T11:42:47;12.90;99.90
56512;DHT22;42408;53.238;5.686;2024-03-02T11:45:16;13.00;99.90
56512;DHT22;42408;53.238;5.686;2024-03-02T11:47:49;12.90;99.90
56512;DHT22;42408;53.238;5.686;2024-03-02T11:50:15;12.90;99.90
56512;DHT22;42408;53.238;5.686;2024-03-02T11:52:42;12.90;99.90
56512;DHT22;42408;53.238;5.686;2024-03-02T11:55:08;12.90;99.90
56512;DHT22;42408;53.238;5.686;2024-03-02T11:57:35;12.90;99.90
56512;DHT22;42408;53.238;5.686;2024-03-02T12:00:01;13.00;99.90
56512;DHT22;42408;53.238;5.686;2024-03-02T12:02:29;13.00;99.90
56512;DHT22;42408;53.238;5.686;2024-03-02T12:04:54;13.00;99.90
56512;DHT22;42408;53.238;5.686;2024-03-02T12:07:22;13.00;99.90
56512;DHT22;42408;53.238;5.686;2024-03-02T12:09:49;13.10;99.90
56512;DHT22;42408;53.238;5.686;2024-03-02T12:12:15;13.00;99.90
56512;DHT22;42408;53.238;5.686;2024-03-02T12:14:51;13.10;99.90
56512;DHT22;42408;53.238;5.686;2024-03-02T12:17:18;13.10;99.90
56512;DHT22;42408;53.238;5.686;2024-03-02T12:19:44;13.10;99.90
56512;DHT22;42408;53.238;5.686;2024-03-02T12:22:11;13.10;99.90
56512;DHT22;42408;53.238;5.686;2024-03-02T12:24:37;13.10;99.90
56512;DHT22;42408;53.238;5.686;2024-03-02T12:27:04;13.10;99.90
56512;DHT22;42408;53.238;5.686;2024-03-02T12:29:30;13.20;99.90
56512;DHT22;42408;53.238;5.686;2024-03-02T12:31:56;13.20;99.90
56512;DHT22;42408;53.238;5.686;2024-03-02T12:34:22;13.20;99.90
56512;DHT22;42408;53.238;5.686;2024-03-02T12:36:49;13.10;99.90
56512;DHT22;42408;53.238;5.686;2024-03-02T12:39:20;13.20;99.90
56512;DHT22;42408;53.238;5.686;2024-03-02T12:41:49;13.30;99.90
56512;DHT22;42408;53.238;5.686;2024-03-02T12:44:19;13.40;99.90
56512;DHT22;42408;53.238;5.686;2024-03-02T12:46:46;13.40;99.90
56512;DHT22;42408;53.238;5.686;2024-03-02T12:49:14;13.40;99.90
56512;DHT22;42408;53.238;5.686;2024-03-02T12:51:42;13.30;99.90
56512;DHT22;42408;53.238;5.686;2024-03-02T12:54:11;13.40;99.90
56512;DHT22;42408;53.238;5.686;2024-03-02T12:56:41;13.50;99.90
56512;DHT22;42408;53.238;5.686;2024-03-02T12:59:18;13.50;99.90
56512;DHT22;42408;53.238;5.686;2024-03-02T13:01:51;13.40;99.90
56512;DHT22;42408;53.238;5.686;2024-03-02T13:04:21;13.40;99.90
56512;DHT22;42408;53.238;5.686;2024-03-02T13:06:46;13.40;99.90
56512;DHT22;42408;53.238;5.686;2024-03-02T13:09:12;13.40;99.90
56512;DHT22;42408;53.238;5.686;2024-03-02T13:11:41;13.50;99.90
56512;DHT22;42408;53.238;5.686;2024-03-02T13:14:07;13.50;99.90
56512;DHT22;42408;53.238;5.686;2024-03-02T13:16:41;13.50;99.90
56512;DHT22;42408;53.238;5.686;2024-03-02T13:19:08;13.40;99.90
56512;DHT22;42408;53.238;5.686;2024-03-02T13:21:33;13.40;99.90
56512;DHT22;42408;53.238;5.686;2024-03-02T13:23:59;13.30;99.90
56512;DHT22;42408;53.238;5.686;2024-03-02T13:26:25;13.30;99.90
56512;DHT22;42408;53.238;5.686;2024-03-02T13:28:51;13.30;99.90
56512;DHT22;42408;53.238;5.686;2024-03-02T13:31:17;13.30;99.90
56512;DHT22;42408;53.238;5.686;2024-03-02T13:33:42;13.40;99.90
56512;DHT22;42408;53.238;5.686;2024-03-02T13:36:08;13.50;99.90
56512;DHT22;42408;53.238;5.686;2024-03-02T13:38:33;13.50;99.90
56512;DHT22;42408;53.238;5.686;2024-03-02T13:40:59;13.50;99.90
56512;DHT22;42408;53.238;5.686;2024-03-02T13:43:26;13.50;99.90
56512;DHT22;42408;53.238;5.686;2024-03-02T13:45:52;13.40;99.90
56512;DHT22;42408;53.238;5.686;2024-03-02T13:48:19;13.40;99.90
56512;DHT22;42408;53.238;5.686;2024-03-02T13:50:46;13.30;99.90
56512;DHT22;42408;53.238;5.686;2024-03-02T13:53:13;13.30;99.90
56512;DHT22;42408;53.238;5.686;2024-03-02T13:55:39;13.40;99.90
56512;DHT22;42408;53.238;5.686;2024-03-02T13:58:07;13.40;99.90
56512;DHT22;42408;53.238;5.686;2024-03-02T14:00:33;13.50;99.90
56512;DHT22;42408;53.238;5.686;2024-03-02T14:02:58;13.40;99.90
56512;DHT22;42408;53.238;5.686;2024-03-02T14:05:24;13.50;99.90
56512;DHT22;42408;53.238;5.686;2024-03-02T14:07:50;13.50;99.90
56512;DHT22;42408;53.238;5.686;2024-03-02T14:10:15;13.60;99.90
56512;DHT22;42408;53.238;5.686;2024-03-02T14:12:41;13.70;99.90
56512;DHT22;42408;53.238;5.686;2024-03-02T14:15:07;13.70;99.90
56512;DHT22;42408;53.238;5.686;2024-03-02T14:17:34;13.70;99.90
56512;DHT22;42408;53.238;5.686;2024-03-02T14:19:59;13.70;99.90
56512;DHT22;42408;53.238;5.686;2024-03-02T14:22:25;13.80;99.90
56512;DHT22;42408;53.238;5.686;2024-03-02T14:24:51;13.80;99.90
56512;DHT22;42408;53.238;5.686;2024-03-02T14:27:16;13.90;99.90
56512;DHT22;42408;53.238;5.686;2024-03-02T14:29:43;13.90;99.90
56512;DHT22;42408;53.238;5.686;2024-03-02T14:32:08;13.90;99.90
56512;DHT22;42408;53.238;5.686;2024-03-02T14:34:34;13.90;99.90
56512;DHT22;42408;53.238;5.686;2024-03-02T14:37:00;14.00;99.90
56512;DHT22;42408;53.238;5.686;2024-03-02T14:39:26;13.90;99.90
56512;DHT22;42408;53.238;5.686;2024-03-02T14:41:52;13.90;99.90
56512;DHT22;42408;53.238;5.686;2024-03-02T14:44:18;14.00;99.90
56512;DHT22;42408;53.238;5.686;2024-03-02T14:46:46;14.00;99.90
56512;DHT22;42408;53.238;5.686;2024-03-02T14:49:12;14.10;99.90
56512;DHT22;42408;53.238;5.686;2024-03-02T14:51:38;14.00;99.90
56512;DHT22;42408;53.238;5.686;2024-03-02T14:54:04;14.10;99.90
56512;DHT22;42408;53.238;5.686;2024-03-02T14:56:30;14.00;99.90
56512;DHT22;42408;53.238;5.686;2024-03-02T14:58:58;13.90;99.90
56512;DHT22;42408;53.238;5.686;2024-03-02T15:01:24;13.90;99.90
56512;DHT22;42408;53.238;5.686;2024-03-02T15:03:50;13.90;99.90
56512;DHT22;42408;53.238;5.686;2024-03-02T15:06:16;13.90;99.90
56512;DHT22;42408;53.238;5.686;2024-03-02T15:08:42;13.80;99.90
56512;DHT22;42408;53.238;5.686;2024-03-02T15:11:09;13.80;99.90
56512;DHT22;42408;53.238;5.686;2024-03-02T15:13:34;13.70;99.90
56512;DHT22;42408;53.238;5.686;2024-03-02T15:16:00;13.60;99.90
56512;DHT22;42408;53.238;5.686;2024-03-02T15:18:26;13.50;99.90
56512;DHT22;42408;53.238;5.686;2024-03-02T15:20:53;13.50;99.90
56512;DHT22;42408;53.238;5.686;2024-03-02T15:23:18;13.40;99.90
56512;DHT22;42408;53.238;5.686;2024-03-02T15:25:44;13.30;99.90
56512;DHT22;42408;53.238;5.686;2024-03-02T15:28:10;13.10;99.90
56512;DHT22;42408;53.238;5.686;2024-03-02T15:30:35;13.00;99.90
56512;DHT22;42408;53.238;5.686;2024-03-02T15:33:02;13.00;99.90
56512;DHT22;42408;53.238;5.686;2024-03-02T15:35:27;12.90;99.90
56512;DHT22;42408;53.238;5.686;2024-03-02T15:37:56;12.90;99.90
56512;DHT22;42408;53.238;5.686;2024-03-02T15:40:21;12.80;99.90
56512;DHT22;42408;53.238;5.686;2024-03-02T15:42:47;12.80;99.90
56512;DHT22;42408;53.238;5.686;2024-03-02T15:45:12;12.70;99.90
56512;DHT22;42408;53.238;5.686;2024-03-02T15:47:38;12.60;99.90
56512;DHT22;42408;53.238;5.686;2024-03-02T15:50:04;12.60;99.90
56512;DHT22;42408;53.238;5.686;2024-03-02T15:52:30;12.60;99.90